sensor_id;sensor_type;location;lat;lon;timestamp;temperature;humidity
6375;DHT22;35400;45.472;-122.822;2022-11-20T01:16:02;4.70;77.40
6375;DHT22;35400;45.472;-122.822;2022-11-20T01:18:29;4.50;78.60
6375;DHT22;35400;45.472;-122.822;2022-11-20T01:20:59;4.40;78.70
6375;DHT22;35400;45.472;-122.822;2022-11-20T01:23:26;4.40;78.70
6375;DHT22;35400;45.472;-122.822;2022-11-20T01:25:52;4.30;79.40
6375;DHT22;35400;45.472;-122.822;2022-11-20T01:28:19;4.30;78.70
6375;DHT22;35400;45.472;-122.822;2022-11-20T01:30:45;4.30;78.90
6375;DHT22;35400;45.472;-122.822;2022-11-20T01:33:11;4.30;79.60
6375;DHT22;35400;45.472;-122.822;2022-11-20T01:35:38;4.30;79.60
6375;DHT22;35400;45.472;-122.822;2022-11-20T01:38:04;4.30;79.50
6375;DHT22;35400;45.472;-122.822;2022-11-20T01:40:31;4.30;79.70
6375;DHT22;35400;45.472;-122.822;2022-11-20T01:46:17;4.30;79.10
6375;DHT22;35400;45.472;-122.822;2022-11-20T01:48:55;4.30;79.20
6375;DHT22;35400;45.472;-122.822;2022-11-20T01:53:59;4.30;79.70
6375;DHT22;35400;45.472;-122.822;2022-11-20T01:56:29;4.30;79.60
6375;DHT22;35400;45.472;-122.822;2022-11-20T01:59:00;4.30;79.70
6375;DHT22;35400;45.472;-122.822;2022-11-20T02:01:28;4.40;80.30
6375;DHT22;35400;45.472;-122.822;2022-11-20T02:03:55;4.40;79.40
6375;DHT22;35400;45.472;-122.822;2022-11-20T02:06:23;4.40;79.40
6375;DHT22;35400;45.472;-122.822;2022-11-20T02:08:51;4.40;79.50
6375;DHT22;35400;45.472;-122.822;2022-11-20T02:11:18;4.40;79.70
6375;DHT22;35400;45.472;-122.822;2022-11-20T02:13:45;4.30;79.80
6375;DHT22;35400;45.472;-122.822;2022-11-20T02:16:23;4.20;80.00
6375;DHT22;35400;45.472;-122.822;2022-11-20T02:18:50;4.20;80.20
6375;DHT22;35400;45.472;-122.822;2022-11-20T02:24:31;4.10;80.80
6375;DHT22;35400;45.472;-122.822;2022-11-20T02:26:41;4.00;80.80
6375;DHT22;35400;45.472;-122.822;2022-11-20T02:29:09;4.00;81.00
6375;DHT22;35400;45.472;-122.822;2022-11-20T02:31:40;3.90;81.00
6375;DHT22;35400;45.472;-122.822;2022-11-20T02:34:07;3.90;81.20
6375;DHT22;35400;45.472;-122.822;2022-11-20T02:36:35;3.80;81.50
6375;DHT22;35400;45.472;-122.822;2022-11-20T02:39:03;3.80;82.00
6375;DHT22;35400;45.472;-122.822;2022-11-20T02:41:36;3.70;82.50
6375;DHT22;35400;45.472;-122.822;2022-11-20T02:44:03;3.60;82.50
6375;DHT22;35400;45.472;-122.822;2022-11-20T02:46:30;3.60;82.70
6375;DHT22;35400;45.472;-122.822;2022-11-20T02:48:57;3.50;82.90
6375;DHT22;35400;45.472;-122.822;2022-11-20T02:51:24;3.50;82.90
6375;DHT22;35400;45.472;-122.822;2022-11-20T02:53:51;3.50;83.20
6375;DHT22;35400;45.472;-122.822;2022-11-20T02:56:17;3.40;83.20
6375;DHT22;35400;45.472;-122.822;2022-11-20T02:58:44;3.40;83.60
6375;DHT22;35400;45.472;-122.822;2022-11-20T03:01:10;3.40;83.70
6375;DHT22;35400;45.472;-122.822;2022-11-20T03:03:37;3.40;83.60
6375;DHT22;35400;45.472;-122.822;2022-11-20T03:06:03;3.30;83.60
6375;DHT22;35400;45.472;-122.822;2022-11-20T03:08:30;3.30;83.80
6375;DHT22;35400;45.472;-122.822;2022-11-20T03:10:56;3.30;84.00
6375;DHT22;35400;45.472;-122.822;2022-11-20T03:13:24;3.30;83.80
6375;DHT22;35400;45.472;-122.822;2022-11-20T03:15:51;3.30;83.80
6375;DHT22;35400;45.472;-122.822;2022-11-20T03:18:17;3.20;83.90
6375;DHT22;35400;45.472;-122.822;2022-11-20T03:20:44;3.20;83.90
6375;DHT22;35400;45.472;-122.822;2022-11-20T03:23:10;3.20;83.90
6375;DHT22;35400;45.472;-122.822;2022-11-20T03:25:37;3.20;84.00
6375;DHT22;35400;45.472;-122.822;2022-11-20T03:28:03;3.20;84.10
6375;DHT22;35400;45.472;-122.822;2022-11-20T03:30:30;3.20;84.80
6375;DHT22;35400;45.472;-122.822;2022-11-20T03:32:57;3.10;84.30
6375;DHT22;35400;45.472;-122.822;2022-11-20T03:35:23;3.10;84.00
6375;DHT22;35400;45.472;-122.822;2022-11-20T03:37:50;3.10;84.10
6375;DHT22;35400;45.472;-122.822;2022-11-20T03:40:16;3.10;84.20
6375;DHT22;35400;45.472;-122.822;2022-11-20T03:42:43;3.10;84.00
6375;DHT22;35400;45.472;-122.822;2022-11-20T03:45:16;3.10;84.10
6375;DHT22;35400;45.472;-122.822;2022-11-20T03:47:43;3.00;84.10
6375;DHT22;35400;45.472;-122.822;2022-11-20T03:50:10;3.00;84.20
6375;DHT22;35400;45.472;-122.822;2022-11-20T03:52:38;3.00;84.30
6375;DHT22;35400;45.472;-122.822;2022-11-20T03:55:05;3.00;84.40
6375;DHT22;35400;45.472;-122.822;2022-11-20T03:57:32;2.90;84.20
6375;DHT22;35400;45.472;-122.822;2022-11-20T03:59:58;2.90;84.30
6375;DHT22;35400;45.472;-122.822;2022-11-20T04:02:25;2.90;84.30
6375;DHT22;35400;45.472;-122.822;2022-11-20T04:04:52;2.90;84.50
6375;DHT22;35400;45.472;-122.822;2022-11-20T04:07:18;2.90;84.40
6375;DHT22;35400;45.472;-122.822;2022-11-20T04:09:45;2.80;84.30
6375;DHT22;35400;45.472;-122.822;2022-11-20T04:12:11;2.80;85.20
6375;DHT22;35400;45.472;-122.822;2022-11-20T04:14:38;2.80;84.80
6375;DHT22;35400;45.472;-122.822;2022-11-20T04:17:04;2.70;84.90
6375;DHT22;35400;45.472;-122.822;2022-11-20T04:19:31;2.70;85.00
6375;DHT22;35400;45.472;-122.822;2022-11-20T04:21:58;2.70;85.10
6375;DHT22;35400;45.472;-122.822;2022-11-20T04:24:25;2.60;85.30
6375;DHT22;35400;45.472;-122.822;2022-11-20T04:26:52;2.60;85.00
6375;DHT22;35400;45.472;-122.822;2022-11-20T04:29:18;2.60;84.90
6375;DHT22;35400;45.472;-122.822;2022-11-20T04:31:45;2.60;84.90
6375;DHT22;35400;45.472;-122.822;2022-11-20T04:34:11;2.60;84.80
6375;DHT22;35400;45.472;-122.822;2022-11-20T04:36:38;2.60;84.80
6375;DHT22;35400;45.472;-122.822;2022-11-20T04:39:05;2.60;84.80
6375;DHT22;35400;45.472;-122.822;2022-11-20T04:41:34;2.60;84.70
6375;DHT22;35400;45.472;-122.822;2022-11-20T04:44:01;2.60;84.60
6375;DHT22;35400;45.472;-122.822;2022-11-20T04:46:30;2.60;84.80
6375;DHT22;35400;45.472;-122.822;2022-11-20T04:48:56;2.60;84.80
6375;DHT22;35400;45.472;-122.822;2022-11-20T04:51:23;2.60;84.90
6375;DHT22;35400;45.472;-122.822;2022-11-20T04:53:49;2.50;85.10
6375;DHT22;35400;45.472;-122.822;2022-11-20T04:56:16;2.50;85.20
6375;DHT22;35400;45.472;-122.822;2022-11-20T04:58:42;2.50;85.00
6375;DHT22;35400;45.472;-122.822;2022-11-20T05:01:19;2.50;85.00
6375;DHT22;35400;45.472;-122.822;2022-11-20T05:03:45;2.40;85.00
6375;DHT22;35400;45.472;-122.822;2022-11-20T05:06:13;2.50;85.20
6375;DHT22;35400;45.472;-122.822;2022-11-20T05:08:40;2.40;85.40
6375;DHT22;35400;45.472;-122.822;2022-11-20T05:11:11;2.40;85.50
6375;DHT22;35400;45.472;-122.822;2022-11-20T05:13:38;2.40;85.40
6375;DHT22;35400;45.472;-122.822;2022-11-20T05:16:06;2.40;85.50
6375;DHT22;35400;45.472;-122.822;2022-11-20T05:18:33;2.30;85.40
6375;DHT22;35400;45.472;-122.822;2022-11-20T05:21:00;2.30;85.60
6375;DHT22;35400;45.472;-122.822;2022-11-20T05:23:26;2.30;85.70
6375;DHT22;35400;45.472;-122.822;2022-11-20T05:25:53;2.30;85.70
6375;DHT22;35400;45.472;-122.822;2022-11-20T05:28:20;2.30;85.70
6375;DHT22;35400;45.472;-122.822;2022-11-20T05:30:47;2.30;85.80
6375;DHT22;35400;45.472;-122.822;2022-11-20T05:33:14;2.30;85.90
6375;DHT22;35400;45.472;-122.822;2022-11-20T05:35:40;2.30;86.00
6375;DHT22;35400;45.472;-122.822;2022-11-20T05:38:07;2.30;86.00
6375;DHT22;35400;45.472;-122.822;2022-11-20T05:40:33;2.30;86.00
6375;DHT22;35400;45.472;-122.822;2022-11-20T05:43:00;2.30;86.20
6375;DHT22;35400;45.472;-122.822;2022-11-20T05:45:27;2.30;86.20
6375;DHT22;35400;45.472;-122.822;2022-11-20T05:47:53;2.30;86.20
6375;DHT22;35400;45.472;-122.822;2022-11-20T05:50:19;2.30;86.30
6375;DHT22;35400;45.472;-122.822;2022-11-20T05:52:46;2.30;86.40
6375;DHT22;35400;45.472;-122.822;2022-11-20T05:55:12;2.30;86.50
6375;DHT22;35400;45.472;-122.822;2022-11-20T05:57:39;2.30;86.50
6375;DHT22;35400;45.472;-122.822;2022-11-20T06:00:06;2.20;86.40
6375;DHT22;35400;45.472;-122.822;2022-11-20T06:02:34;2.20;87.30
6375;DHT22;35400;45.472;-122.822;2022-11-20T06:05:01;2.20;86.70
6375;DHT22;35400;45.472;-122.822;2022-11-20T06:07:28;2.20;86.80
6375;DHT22;35400;45.472;-122.822;2022-11-20T06:09:54;2.10;86.70
6375;DHT22;35400;45.472;-122.822;2022-11-20T06:12:21;2.10;87.00
6375;DHT22;35400;45.472;-122.822;2022-11-20T06:14:47;2.10;87.10
6375;DHT22;35400;45.472;-122.822;2022-11-20T06:17:14;2.10;87.30
6375;DHT22;35400;45.472;-122.822;2022-11-20T06:19:40;2.00;87.30
6375;DHT22;35400;45.472;-122.822;2022-11-20T06:22:07;2.00;87.40
6375;DHT22;35400;45.472;-122.822;2022-11-20T06:24:33;2.00;87.40
6375;DHT22;35400;45.472;-122.822;2022-11-20T06:27:00;2.00;87.40
6375;DHT22;35400;45.472;-122.822;2022-11-20T06:29:27;2.00;87.50
6375;DHT22;35400;45.472;-122.822;2022-11-20T06:31:54;1.90;87.60
6375;DHT22;35400;45.472;-122.822;2022-11-20T06:34:21;1.90;87.70
6375;DHT22;35400;45.472;-122.822;2022-11-20T06:36:47;1.90;87.90
6375;DHT22;35400;45.472;-122.822;2022-11-20T06:39:14;1.80;88.10
6375;DHT22;35400;45.472;-122.822;2022-11-20T06:41:40;1.80;88.30
6375;DHT22;35400;45.472;-122.822;2022-11-20T06:44:07;1.70;88.50
6375;DHT22;35400;45.472;-122.822;2022-11-20T06:46:33;1.70;88.70
6375;DHT22;35400;45.472;-122.822;2022-11-20T06:49:00;1.70;89.00
6375;DHT22;35400;45.472;-122.822;2022-11-20T06:51:27;1.60;89.30
6375;DHT22;35400;45.472;-122.822;2022-11-20T06:53:53;1.60;89.20
6375;DHT22;35400;45.472;-122.822;2022-11-20T06:56:20;1.60;89.20
6375;DHT22;35400;45.472;-122.822;2022-11-20T06:58:47;1.60;89.30
6375;DHT22;35400;45.472;-122.822;2022-11-20T07:01:14;1.60;89.30
6375;DHT22;35400;45.472;-122.822;2022-11-20T07:03:41;1.60;89.30
6375;DHT22;35400;45.472;-122.822;2022-11-20T07:06:08;1.60;89.10
6375;DHT22;35400;45.472;-122.822;2022-11-20T07:08:35;1.60;89.30
6375;DHT22;35400;45.472;-122.822;2022-11-20T07:11:03;1.70;89.50
6375;DHT22;35400;45.472;-122.822;2022-11-20T07:13:30;1.70;89.30
6375;DHT22;35400;45.472;-122.822;2022-11-20T07:16:02;1.70;89.20
6375;DHT22;35400;45.472;-122.822;2022-11-20T07:18:29;1.70;89.10
6375;DHT22;35400;45.472;-122.822;2022-11-20T07:20:59;1.70;89.00
6375;DHT22;35400;45.472;-122.822;2022-11-20T07:23:26;1.80;89.30
6375;DHT22;35400;45.472;-122.822;2022-11-20T07:25:52;1.70;89.30
6375;DHT22;35400;45.472;-122.822;2022-11-20T07:28:19;1.70;89.60
6375;DHT22;35400;45.472;-122.822;2022-11-20T07:30:51;1.70;89.50
6375;DHT22;35400;45.472;-122.822;2022-11-20T07:33:18;1.70;90.00
6375;DHT22;35400;45.472;-122.822;2022-11-20T07:35:45;1.70;89.60
6375;DHT22;35400;45.472;-122.822;2022-11-20T07:38:12;1.70;89.60
6375;DHT22;35400;45.472;-122.822;2022-11-20T07:40:38;1.60;89.50
6375;DHT22;35400;45.472;-122.822;2022-11-20T07:43:05;1.60;89.80
6375;DHT22;35400;45.472;-122.822;2022-11-20T07:45:31;1.60;89.70
6375;DHT22;35400;45.472;-122.822;2022-11-20T07:47:58;1.50;89.70
6375;DHT22;35400;45.472;-122.822;2022-11-20T07:50:25;1.50;89.90
6375;DHT22;35400;45.472;-122.822;2022-11-20T07:52:51;1.50;90.00
6375;DHT22;35400;45.472;-122.822;2022-11-20T07:55:18;1.40;90.10
6375;DHT22;35400;45.472;-122.822;2022-11-20T07:57:44;1.40;90.20
6375;DHT22;35400;45.472;-122.822;2022-11-20T08:00:11;1.40;90.30
6375;DHT22;35400;45.472;-122.822;2022-11-20T08:02:38;1.30;90.30
6375;DHT22;35400;45.472;-122.822;2022-11-20T08:05:05;1.30;90.30
6375;DHT22;35400;45.472;-122.822;2022-11-20T08:07:38;1.30;90.40
6375;DHT22;35400;45.472;-122.822;2022-11-20T08:10:05;1.20;90.40
6375;DHT22;35400;45.472;-122.822;2022-11-20T08:12:32;1.20;90.60
6375;DHT22;35400;45.472;-122.822;2022-11-20T08:15:28;1.10;90.70
6375;DHT22;35400;45.472;-122.822;2022-11-20T08:18:05;1.10;90.80
6375;DHT22;35400;45.472;-122.822;2022-11-20T08:20:32;1.00;90.90
6375;DHT22;35400;45.472;-122.822;2022-11-20T08:22:59;0.90;91.00
6375;DHT22;35400;45.472;-122.822;2022-11-20T08:25:27;0.90;91.20
6375;DHT22;35400;45.472;-122.822;2022-11-20T08:27:53;0.90;91.20
6375;DHT22;35400;45.472;-122.822;2022-11-20T08:30:20;0.80;91.30
6375;DHT22;35400;45.472;-122.822;2022-11-20T08:32:46;0.80;91.40
6375;DHT22;35400;45.472;-122.822;2022-11-20T08:35:13;0.70;91.40
6375;DHT22;35400;45.472;-122.822;2022-11-20T08:37:39;0.70;91.60
6375;DHT22;35400;45.472;-122.822;2022-11-20T08:40:10;0.60;91.60
6375;DHT22;35400;45.472;-122.822;2022-11-20T08:42:37;0.60;91.70
6375;DHT22;35400;45.472;-122.822;2022-11-20T08:45:03;0.50;91.80
6375;DHT22;35400;45.472;-122.822;2022-11-20T08:47:30;0.50;91.90
6375;DHT22;35400;45.472;-122.822;2022-11-20T08:49:57;0.40;92.00
6375;DHT22;35400;45.472;-122.822;2022-11-20T08:52:24;0.40;92.00
6375;DHT22;35400;45.472;-122.822;2022-11-20T08:54:50;0.30;92.20
6375;DHT22;35400;45.472;-122.822;2022-11-20T08:57:17;0.30;92.30
6375;DHT22;35400;45.472;-122.822;2022-11-20T08:59:43;0.20;92.50
6375;DHT22;35400;45.472;-122.822;2022-11-20T09:02:09;0.10;92.60
6375;DHT22;35400;45.472;-122.822;2022-11-20T09:04:36;0.10;92.70
6375;DHT22;35400;45.472;-122.822;2022-11-20T09:07:02;0.00;92.90
6375;DHT22;35400;45.472;-122.822;2022-11-20T09:09:29;0.00;93.20
6375;DHT22;35400;45.472;-122.822;2022-11-20T09:11:55;-0.10;93.60
6375;DHT22;35400;45.472;-122.822;2022-11-20T09:14:22;-0.10;93.50
6375;DHT22;35400;45.472;-122.822;2022-11-20T09:16:55;-0.10;93.70
6375;DHT22;35400;45.472;-122.822;2022-11-20T09:19:23;-0.10;93.90
6375;DHT22;35400;45.472;-122.822;2022-11-20T09:21:50;-0.20;93.90
6375;DHT22;35400;45.472;-122.822;2022-11-20T09:24:17;-0.20;94.10
6375;DHT22;35400;45.472;-122.822;2022-11-20T09:26:44;-0.20;94.10
6375;DHT22;35400;45.472;-122.822;2022-11-20T09:29:10;-0.20;94.20
6375;DHT22;35400;45.472;-122.822;2022-11-20T09:31:37;-0.20;94.30
6375;DHT22;35400;45.472;-122.822;2022-11-20T09:34:03;-0.10;94.30
6375;DHT22;35400;45.472;-122.822;2022-11-20T09:36:30;-0.10;94.10
6375;DHT22;35400;45.472;-122.822;2022-11-20T09:38:56;0.00;94.10
6375;DHT22;35400;45.472;-122.822;2022-11-20T09:54:18;0.30;93.60
6375;DHT22;35400;45.472;-122.822;2022-11-20T09:56:46;0.40;93.50
6375;DHT22;35400;45.472;-122.822;2022-11-20T09:59:19;0.40;93.30
6375;DHT22;35400;45.472;-122.822;2022-11-20T10:01:48;0.50;93.20
6375;DHT22;35400;45.472;-122.822;2022-11-20T10:04:16;0.50;93.10
6375;DHT22;35400;45.472;-122.822;2022-11-20T10:06:47;0.50;93.10
6375;DHT22;35400;45.472;-122.822;2022-11-20T10:11:46;0.60;93.10
6375;DHT22;35400;45.472;-122.822;2022-11-20T10:14:20;0.60;93.10
6375;DHT22;35400;45.472;-122.822;2022-11-20T10:19:21;0.50;93.30
6375;DHT22;35400;45.472;-122.822;2022-11-20T10:21:55;0.50;93.40
6375;DHT22;35400;45.472;-122.822;2022-11-20T10:32:36;0.30;93.80
6375;DHT22;35400;45.472;-122.822;2022-11-20T10:37:46;0.20;94.10
6375;DHT22;35400;45.472;-122.822;2022-11-20T10:40:25;0.20;94.20
6375;DHT22;35400;45.472;-122.822;2022-11-20T10:43:00;0.10;94.40
6375;DHT22;35400;45.472;-122.822;2022-11-20T10:47:54;-0.10;94.80
6375;DHT22;35400;45.472;-122.822;2022-11-20T10:50:22;-0.10;94.70
6375;DHT22;35400;45.472;-122.822;2022-11-20T10:58:04;-0.30;95.20
6375;DHT22;35400;45.472;-122.822;2022-11-20T11:00:34;-0.40;95.40
6375;DHT22;35400;45.472;-122.822;2022-11-20T11:03:01;-0.40;95.60
6375;DHT22;35400;45.472;-122.822;2022-11-20T11:05:33;-0.50;95.70
6375;DHT22;35400;45.472;-122.822;2022-11-20T11:08:02;-0.50;96.00
6375;DHT22;35400;45.472;-122.822;2022-11-20T11:13:21;-0.60;96.40
6375;DHT22;35400;45.472;-122.822;2022-11-20T11:15:48;-0.70;96.50
6375;DHT22;35400;45.472;-122.822;2022-11-20T11:18:31;-0.70;96.70
6375;DHT22;35400;45.472;-122.822;2022-11-20T11:21:02;-0.70;96.90
6375;DHT22;35400;45.472;-122.822;2022-11-20T11:25:56;-0.80;97.30
6375;DHT22;35400;45.472;-122.822;2022-11-20T11:28:24;-0.80;97.40
6375;DHT22;35400;45.472;-122.822;2022-11-20T11:30:53;-0.90;97.50
6375;DHT22;35400;45.472;-122.822;2022-11-20T11:35:50;-0.90;97.90
6375;DHT22;35400;45.472;-122.822;2022-11-20T11:38:44;-0.90;98.00
6375;DHT22;35400;45.472;-122.822;2022-11-20T11:41:12;-1.00;98.20
6375;DHT22;35400;45.472;-122.822;2022-11-20T11:43:48;-1.00;98.50
6375;DHT22;35400;45.472;-122.822;2022-11-20T11:46:34;-1.00;98.70
6375;DHT22;35400;45.472;-122.822;2022-11-20T11:54:17;-1.10;99.40
6375;DHT22;35400;45.472;-122.822;2022-11-20T11:56:49;-1.10;99.60
6375;DHT22;35400;45.472;-122.822;2022-11-20T11:59:22;-1.10;99.70
6375;DHT22;35400;45.472;-122.822;2022-11-20T12:04:43;-1.10;99.90
6375;DHT22;35400;45.472;-122.822;2022-11-20T12:07:15;-1.20;99.90
6375;DHT22;35400;45.472;-122.822;2022-11-20T12:09:46;-1.20;99.90
6375;DHT22;35400;45.472;-122.822;2022-11-20T12:12:18;-1.20;99.90
6375;DHT22;35400;45.472;-122.822;2022-11-20T12:14:47;-1.20;99.90
6375;DHT22;35400;45.472;-122.822;2022-11-20T12:17:16;-1.20;99.90
6375;DHT22;35400;45.472;-122.822;2022-11-20T12:19:43;-1.20;99.90
6375;DHT22;35400;45.472;-122.822;2022-11-20T12:24:58;-1.20;99.90
6375;DHT22;35400;45.472;-122.822;2022-11-20T12:30:00;-1.20;99.90
6375;DHT22;35400;45.472;-122.822;2022-11-20T12:32:47;-1.20;99.90
6375;DHT22;35400;45.472;-122.822;2022-11-20T12:43:22;-1.20;99.90
6375;DHT22;35400;45.472;-122.822;2022-11-20T13:07:28;-1.40;99.90
6375;DHT22;35400;45.472;-122.822;2022-11-20T13:09:56;-1.40;99.90
6375;DHT22;35400;45.472;-122.822;2022-11-20T13:15:04;-1.40;99.90
6375;DHT22;35400;45.472;-122.822;2022-11-20T13:20:14;-1.40;99.90
6375;DHT22;35400;45.472;-122.822;2022-11-20T13:25:21;-1.40;99.90
6375;DHT22;35400;45.472;-122.822;2022-11-20T13:27:48;-1.40;99.90
6375;DHT22;35400;45.472;-122.822;2022-11-20T13:30:16;-1.50;99.90
6375;DHT22;35400;45.472;-122.822;2022-11-20T13:32:47;-1.40;99.90
6375;DHT22;35400;45.472;-122.822;2022-11-20T13:35:23;-1.40;99.90
6375;DHT22;35400;45.472;-122.822;2022-11-20T13:37:59;-1.50;99.90
6375;DHT22;35400;45.472;-122.822;2022-11-20T13:40:25;-1.50;99.90
6375;DHT22;35400;45.472;-122.822;2022-11-20T13:42:56;-1.50;99.90
6375;DHT22;35400;45.472;-122.822;2022-11-20T13:45:28;-1.50;99.90
6375;DHT22;35400;45.472;-122.822;2022-11-20T13:47:55;-1.50;99.90
6375;DHT22;35400;45.472;-122.822;2022-11-20T13:53:08;-1.50;99.90
6375;DHT22;35400;45.472;-122.822;2022-11-20T13:55:45;-1.50;99.90
6375;DHT22;35400;45.472;-122.822;2022-11-20T14:00:48;-1.50;99.90
6375;DHT22;35400;45.472;-122.822;2022-11-20T14:03:23;-1.60;99.90
6375;DHT22;35400;45.472;-122.822;2022-11-20T14:06:01;-1.60;99.90
6375;DHT22;35400;45.472;-122.822;2022-11-20T14:08:45;-1.60;99.90
6375;DHT22;35400;45.472;-122.822;2022-11-20T14:11:15;-1.60;99.90
6375;DHT22;35400;45.472;-122.822;2022-11-20T14:13:55;-1.70;99.90
6375;DHT22;35400;45.472;-122.822;2022-11-20T14:16:22;-1.70;99.90
6375;DHT22;35400;45.472;-122.822;2022-11-20T14:18:49;-1.70;99.90
6375;DHT22;35400;45.472;-122.822;2022-11-20T14:21:23;-1.80;99.90
6375;DHT22;35400;45.472;-122.822;2022-11-20T14:23:52;-1.70;99.90
6375;DHT22;35400;45.472;-122.822;2022-11-20T14:26:18;-1.80;99.90
6375;DHT22;35400;45.472;-122.822;2022-11-20T14:28:48;-1.80;99.90
6375;DHT22;35400;45.472;-122.822;2022-11-20T14:31:25;-1.80;99.90
6375;DHT22;35400;45.472;-122.822;2022-11-20T14:33:53;-1.80;99.90
6375;DHT22;35400;45.472;-122.822;2022-11-20T14:36:21;-1.80;99.90
6375;DHT22;35400;45.472;-122.822;2022-11-20T14:38:48;-1.80;99.90
6375;DHT22;35400;45.472;-122.822;2022-11-20T14:41:18;-1.90;99.90
6375;DHT22;35400;45.472;-122.822;2022-11-20T14:43:46;-1.90;99.90
6375;DHT22;35400;45.472;-122.822;2022-11-20T14:46:12;-1.90;99.90
6375;DHT22;35400;45.472;-122.822;2022-11-20T14:48:45;-1.90;99.90
6375;DHT22;35400;45.472;-122.822;2022-11-20T14:54:17;-2.00;99.90
6375;DHT22;35400;45.472;-122.822;2022-11-20T14:57:02;-2.00;99.90
6375;DHT22;35400;45.472;-122.822;2022-11-20T14:59:30;-2.00;99.90
6375;DHT22;35400;45.472;-122.822;2022-11-20T15:02:03;-2.00;99.90
6375;DHT22;35400;45.472;-122.822;2022-11-20T15:04:31;-2.00;99.90
6375;DHT22;35400;45.472;-122.822;2022-11-20T15:07:00;-2.00;99.90
6375;DHT22;35400;45.472;-122.822;2022-11-20T15:09:26;-2.10;99.90
6375;DHT22;35400;45.472;-122.822;2022-11-20T15:12:00;-2.10;99.90
6375;DHT22;35400;45.472;-122.822;2022-11-20T15:14:29;-2.10;99.90
6375;DHT22;35400;45.472;-122.822;2022-11-20T15:16:56;-2.10;99.90
6375;DHT22;35400;45.472;-122.822;2022-11-20T15:19:23;-2.10;99.90
6375;DHT22;35400;45.472;-122.822;2022-11-20T15:21:50;-2.10;99.90
6375;DHT22;35400;45.472;-122.822;2022-11-20T15:24:17;-2.10;99.90
6375;DHT22;35400;45.472;-122.822;2022-11-20T15:26:44;-2.10;99.90
6375;DHT22;35400;45.472;-122.822;2022-11-20T15:29:11;-2.20;99.90
6375;DHT22;35400;45.472;-122.822;2022-11-20T15:31:38;-2.20;99.90
6375;DHT22;35400;45.472;-122.822;2022-11-20T15:34:12;-2.20;99.90
6375;DHT22;35400;45.472;-122.822;2022-11-20T15:36:39;-2.20;99.90
6375;DHT22;35400;45.472;-122.822;2022-11-20T15:39:06;-2.20;99.90
6375;DHT22;35400;45.472;-122.822;2022-11-20T15:41:37;-2.20;99.90
6375;DHT22;35400;45.472;-122.822;2022-11-20T15:44:04;-2.20;99.90
6375;DHT22;35400;45.472;-122.822;2022-11-20T15:46:32;-2.20;99.90
6375;DHT22;35400;45.472;-122.822;2022-11-20T15:49:04;-2.20;99.90
6375;DHT22;35400;45.472;-122.822;2022-11-20T15:51:35;-2.20;99.90
6375;DHT22;35400;45.472;-122.822;2022-11-20T15:54:12;-2.20;99.90
6375;DHT22;35400;45.472;-122.822;2022-11-20T15:56:39;-2.20;99.90
6375;DHT22;35400;45.472;-122.822;2022-11-20T15:59:05;-2.10;99.90
6375;DHT22;35400;45.472;-122.822;2022-11-20T16:01:32;-2.10;99.90
6375;DHT22;35400;45.472;-122.822;2022-11-20T16:03:59;-2.10;99.90
6375;DHT22;35400;45.472;-122.822;2022-11-20T16:06:26;-2.10;99.90
6375;DHT22;35400;45.472;-122.822;2022-11-20T16:08:52;-2.00;99.90
6375;DHT22;35400;45.472;-122.822;2022-11-20T16:11:19;-2.00;99.90
6375;DHT22;35400;45.472;-122.822;2022-11-20T16:13:45;-1.90;99.90
6375;DHT22;35400;45.472;-122.822;2022-11-20T16:16:34;-1.90;99.90
6375;DHT22;35400;45.472;-122.822;2022-11-20T16:19:01;-1.80;99.90
6375;DHT22;35400;45.472;-122.822;2022-11-20T16:21:27;-1.70;99.90
6375;DHT22;35400;45.472;-122.822;2022-11-20T16:24:01;-1.70;99.90
6375;DHT22;35400;45.472;-122.822;2022-11-20T16:26:28;-1.60;99.90
6375;DHT22;35400;45.472;-122.822;2022-11-20T16:28:54;-1.50;99.90
6375;DHT22;35400;45.472;-122.822;2022-11-20T16:31:22;-1.50;99.90
6375;DHT22;35400;45.472;-122.822;2022-11-20T16:33:50;-1.40;99.90
6375;DHT22;35400;45.472;-122.822;2022-11-20T16:36:18;-1.30;99.90
6375;DHT22;35400;45.472;-122.822;2022-11-20T16:38:45;-1.20;99.90
6375;DHT22;35400;45.472;-122.822;2022-11-20T16:41:12;-1.10;99.90
6375;DHT22;35400;45.472;-122.822;2022-11-20T16:44:00;-1.00;99.90
6375;DHT22;35400;45.472;-122.822;2022-11-20T16:46:28;-1.00;99.90
6375;DHT22;35400;45.472;-122.822;2022-11-20T16:48:55;-0.90;99.90
6375;DHT22;35400;45.472;-122.822;2022-11-20T16:51:22;-0.80;99.90
6375;DHT22;35400;45.472;-122.822;2022-11-20T16:53:49;-0.70;99.90
6375;DHT22;35400;45.472;-122.822;2022-11-20T16:56:17;-0.60;99.90
6375;DHT22;35400;45.472;-122.822;2022-11-20T16:58:44;-0.50;99.90
6375;DHT22;35400;45.472;-122.822;2022-11-20T17:01:12;-0.40;99.90
6375;DHT22;35400;45.472;-122.822;2022-11-20T17:03:39;-0.30;99.90
6375;DHT22;35400;45.472;-122.822;2022-11-20T17:06:13;-0.30;99.90
6375;DHT22;35400;45.472;-122.822;2022-11-20T17:08:39;-0.10;99.90
6375;DHT22;35400;45.472;-122.822;2022-11-20T17:11:07;0.00;99.90
6375;DHT22;35400;45.472;-122.822;2022-11-20T17:13:34;0.10;99.90
6375;DHT22;35400;45.472;-122.822;2022-11-20T17:16:02;0.20;99.90
6375;DHT22;35400;45.472;-122.822;2022-11-20T17:18:29;0.30;99.90
6375;DHT22;35400;45.472;-122.822;2022-11-20T17:20:56;0.40;99.90
6375;DHT22;35400;45.472;-122.822;2022-11-20T17:23:22;0.50;99.90
6375;DHT22;35400;45.472;-122.822;2022-11-20T17:25:49;0.60;99.90
6375;DHT22;35400;45.472;-122.822;2022-11-20T17:28:16;0.70;99.90
6375;DHT22;35400;45.472;-122.822;2022-11-20T17:30:42;0.80;99.90
6375;DHT22;35400;45.472;-122.822;2022-11-20T17:33:09;0.90;99.90
6375;DHT22;35400;45.472;-122.822;2022-11-20T17:35:35;1.00;99.90
6375;DHT22;35400;45.472;-122.822;2022-11-20T17:38:02;1.10;99.90
6375;DHT22;35400;45.472;-122.822;2022-11-20T17:40:29;1.20;99.90
6375;DHT22;35400;45.472;-122.822;2022-11-20T17:42:56;1.30;99.90
6375;DHT22;35400;45.472;-122.822;2022-11-20T17:45:22;1.40;99.90
6375;DHT22;35400;45.472;-122.822;2022-11-20T17:47:49;1.50;99.90
6375;DHT22;35400;45.472;-122.822;2022-11-20T17:50:16;1.60;99.90
6375;DHT22;35400;45.472;-122.822;2022-11-20T17:52:43;1.70;99.90
6375;DHT22;35400;45.472;-122.822;2022-11-20T17:55:10;1.80;99.90
6375;DHT22;35400;45.472;-122.822;2022-11-20T17:57:37;1.90;99.90
6375;DHT22;35400;45.472;-122.822;2022-11-20T18:00:19;2.00;99.90
6375;DHT22;35400;45.472;-122.822;2022-11-20T18:02:45;2.20;99.90
6375;DHT22;35400;45.472;-122.822;2022-11-20T18:05:12;2.30;99.90
6375;DHT22;35400;45.472;-122.822;2022-11-20T18:07:39;2.50;99.90
6375;DHT22;35400;45.472;-122.822;2022-11-20T18:10:07;2.60;99.90
6375;DHT22;35400;45.472;-122.822;2022-11-20T18:12:34;2.80;99.90
6375;DHT22;35400;45.472;-122.822;2022-11-20T18:15:01;2.90;99.90
6375;DHT22;35400;45.472;-122.822;2022-11-20T18:17:28;3.10;99.90
6375;DHT22;35400;45.472;-122.822;2022-11-20T18:19:55;3.30;99.90
6375;DHT22;35400;45.472;-122.822;2022-11-20T18:22:22;3.50;99.90
6375;DHT22;35400;45.472;-122.822;2022-11-20T18:24:49;3.70;99.90